sensor_id;sensor_type;location;lat;lon;timestamp;pressure;altitude;pressure_sealevel;temperature;humidity
55373;BME280;70018;47.838;16.490;2023-10-31T00:00:27;97934.97;;;14.29;80.08
55373;BME280;70018;47.838;16.490;2023-10-31T00:02:54;97938.19;;;14.27;80.24
55373;BME280;70018;47.838;16.490;2023-10-31T00:05:21;97936.19;;;14.28;79.95
55373;BME280;70018;47.838;16.490;2023-10-31T00:07:48;97934.97;;;14.29;80.02
55373;BME280;70018;47.838;16.490;2023-10-31T00:10:14;97920.41;;;14.25;80.42
55373;BME280;70018;47.838;16.490;2023-10-31T00:12:41;97915.72;;;14.21;80.15
55373;BME280;70018;47.838;16.490;2023-10-31T00:15:08;97915.38;;;14.19;80.28
55373;BME280;70018;47.838;16.490;2023-10-31T00:17:34;97903.94;;;14.17;80.33
55373;BME280;70018;47.838;16.490;2023-10-31T00:20:01;97907.53;;;14.14;80.27
55373;BME280;70018;47.838;16.490;2023-10-31T00:22:28;97914.34;;;14.10;79.80
55373;BME280;70018;47.838;16.490;2023-10-31T00:24:54;97910.78;;;14.09;79.65
55373;BME280;70018;47.838;16.490;2023-10-31T00:27:21;97908.75;;;14.13;80.32
55373;BME280;70018;47.838;16.490;2023-10-31T00:29:48;97902.72;;;14.18;80.00
55373;BME280;70018;47.838;16.490;2023-10-31T00:32:14;97898.75;;;14.19;79.76
55373;BME280;70018;47.838;16.490;2023-10-31T00:34:41;97895.56;;;14.21;79.69
55373;BME280;70018;47.838;16.490;2023-10-31T00:37:08;97890.75;;;14.25;79.14
55373;BME280;70018;47.838;16.490;2023-10-31T00:39:34;97891.59;;;14.22;79.24
55373;BME280;70018;47.838;16.490;2023-10-31T00:42:01;97882.50;;;14.21;79.31
55373;BME280;70018;47.838;16.490;2023-10-31T00:44:28;97885.34;;;14.18;79.21
55373;BME280;70018;47.838;16.490;2023-10-31T00:46:54;97881.06;;;14.13;79.19
55373;BME280;70018;47.838;16.490;2023-10-31T00:49:21;97872.41;;;14.11;78.92
55373;BME280;70018;47.838;16.490;2023-10-31T00:51:48;97877.16;;;14.11;79.59
55373;BME280;70018;47.838;16.490;2023-10-31T00:54:14;97885.88;;;14.09;79.32
55373;BME280;70018;47.838;16.490;2023-10-31T00:56:41;97895.75;;;14.10;79.17
55373;BME280;70018;47.838;16.490;2023-10-31T00:59:07;97898.53;;;14.10;79.13
55373;BME280;70018;47.838;16.490;2023-10-31T01:01:34;97892.59;;;14.08;79.26
55373;BME280;70018;47.838;16.490;2023-10-31T01:04:01;97887.50;;;14.07;79.00
55373;BME280;70018;47.838;16.490;2023-10-31T01:06:27;97880.78;;;14.08;79.07
55373;BME280;70018;47.838;16.490;2023-10-31T01:08:54;97875.94;;;14.12;78.95
55373;BME280;70018;47.838;16.490;2023-10-31T01:11:21;97874.31;;;14.14;78.75
55373;BME280;70018;47.838;16.490;2023-10-31T01:13:48;97868.66;;;14.21;78.20
55373;BME280;70018;47.838;16.490;2023-10-31T01:16:14;97862.28;;;14.25;77.99
55373;BME280;70018;47.838;16.490;2023-10-31T01:18:41;97868.59;;;14.25;77.93
55373;BME280;70018;47.838;16.490;2023-10-31T01:21:08;97870.63;;;14.21;78.03
55373;BME280;70018;47.838;16.490;2023-10-31T01:23:35;97863.47;;;14.23;78.19
55373;BME280;70018;47.838;16.490;2023-10-31T01:26:02;97856.25;;;14.30;77.71
55373;BME280;70018;47.838;16.490;2023-10-31T01:28:29;97851.44;;;14.34;77.04
55373;BME280;70018;47.838;16.490;2023-10-31T01:30:55;97851.50;;;14.30;77.53
55373;BME280;70018;47.838;16.490;2023-10-31T01:33:22;97847.94;;;14.30;76.85
55373;BME280;70018;47.838;16.490;2023-10-31T01:35:49;97846.78;;;14.31;76.75
55373;BME280;70018;47.838;16.490;2023-10-31T01:38:15;97853.13;;;14.28;77.22
55373;BME280;70018;47.838;16.490;2023-10-31T01:40:42;97857.53;;;14.25;77.00
55373;BME280;70018;47.838;16.490;2023-10-31T01:43:09;97856.88;;;14.17;76.95
55373;BME280;70018;47.838;16.490;2023-10-31T01:45:36;97849.06;;;14.12;77.01
55373;BME280;70018;47.838;16.490;2023-10-31T01:48:03;97855.44;;;14.09;77.36
55373;BME280;70018;47.838;16.490;2023-10-31T01:50:30;97847.56;;;14.08;77.53
55373;BME280;70018;47.838;16.490;2023-10-31T01:52:56;97843.66;;;14.05;77.41
55373;BME280;70018;47.838;16.490;2023-10-31T01:55:23;97834.25;;;13.99;77.87
55373;BME280;70018;47.838;16.490;2023-10-31T01:57:54;97824.75;;;14.00;77.82
55373;BME280;70018;47.838;16.490;2023-10-31T02:00:21;97814.53;;;13.97;77.88
55373;BME280;70018;47.838;16.490;2023-10-31T02:02:48;97816.16;;;13.95;77.75
55373;BME280;70018;47.838;16.490;2023-10-31T02:05:18;97815.44;;;13.91;78.02
55373;BME280;70018;47.838;16.490;2023-10-31T02:07:45;97828.16;;;13.88;78.11
55373;BME280;70018;47.838;16.490;2023-10-31T02:10:12;97829.69;;;13.89;78.09
55373;BME280;70018;47.838;16.490;2023-10-31T02:12:39;97827.34;;;13.88;78.18
55373;BME280;70018;47.838;16.490;2023-10-31T02:15:07;97810.81;;;13.84;78.04
55373;BME280;70018;47.838;16.490;2023-10-31T02:17:34;97814.41;;;13.81;78.50
55373;BME280;70018;47.838;16.490;2023-10-31T02:20:01;97798.94;;;13.84;78.69
55373;BME280;70018;47.838;16.490;2023-10-31T02:22:28;97803.25;;;13.88;78.34
55373;BME280;70018;47.838;16.490;2023-10-31T02:24:54;97792.94;;;14.08;78.09
55373;BME280;70018;47.838;16.490;2023-10-31T02:27:21;97796.81;;;14.14;77.13
55373;BME280;70018;47.838;16.490;2023-10-31T02:29:48;97791.22;;;14.18;77.13
55373;BME280;70018;47.838;16.490;2023-10-31T02:32:14;97786.88;;;14.17;76.98
55373;BME280;70018;47.838;16.490;2023-10-31T02:34:42;97791.28;;;14.14;76.73
55373;BME280;70018;47.838;16.490;2023-10-31T02:37:08;97800.50;;;14.08;77.19
55373;BME280;70018;47.838;16.490;2023-10-31T02:39:36;97811.63;;;14.04;76.55
55373;BME280;70018;47.838;16.490;2023-10-31T02:42:03;97816.81;;;14.02;77.01
55373;BME280;70018;47.838;16.490;2023-10-31T02:44:30;97818.78;;;14.02;76.76
55373;BME280;70018;47.838;16.490;2023-10-31T02:46:57;97822.34;;;14.02;76.42
55373;BME280;70018;47.838;16.490;2023-10-31T02:49:23;97807.31;;;14.03;76.16
55373;BME280;70018;47.838;16.490;2023-10-31T02:51:50;97806.88;;;14.05;76.28
55373;BME280;70018;47.838;16.490;2023-10-31T02:54:17;97801.69;;;14.07;76.28
55373;BME280;70018;47.838;16.490;2023-10-31T02:56:43;97804.16;;;14.01;76.46
55373;BME280;70018;47.838;16.490;2023-10-31T02:59:10;97783.72;;;13.95;76.56
55373;BME280;70018;47.838;16.490;2023-10-31T03:01:37;97762.47;;;13.89;76.94
55373;BME280;70018;47.838;16.490;2023-10-31T03:04:04;97754.91;;;13.93;76.65
55373;BME280;70018;47.838;16.490;2023-10-31T03:06:31;97750.53;;;13.95;76.89
55373;BME280;70018;47.838;16.490;2023-10-31T03:08:57;97731.50;;;13.97;76.77
55373;BME280;70018;47.838;16.490;2023-10-31T03:11:25;97733.72;;;14.06;76.57
55373;BME280;70018;47.838;16.490;2023-10-31T03:13:52;97720.63;;;14.06;76.52
55373;BME280;70018;47.838;16.490;2023-10-31T03:16:20;97707.38;;;14.17;76.32
55373;BME280;70018;47.838;16.490;2023-10-31T03:18:47;97709.91;;;14.28;75.85
55373;BME280;70018;47.838;16.490;2023-10-31T03:21:13;97705.56;;;14.31;75.83
55373;BME280;70018;47.838;16.490;2023-10-31T03:23:43;97695.09;;;14.38;75.53
55373;BME280;70018;47.838;16.490;2023-10-31T03:26:10;97699.25;;;14.46;74.63
55373;BME280;70018;47.838;16.490;2023-10-31T03:28:36;97696.69;;;14.55;75.20
55373;BME280;70018;47.838;16.490;2023-10-31T03:31:03;97699.19;;;14.66;75.48
55373;BME280;70018;47.838;16.490;2023-10-31T03:33:30;97688.84;;;14.70;74.65
55373;BME280;70018;47.838;16.490;2023-10-31T03:35:57;97667.88;;;14.69;74.82
55373;BME280;70018;47.838;16.490;2023-10-31T03:38:23;97650.22;;;14.63;74.40
55373;BME280;70018;47.838;16.490;2023-10-31T03:40:50;97666.47;;;14.61;73.81
55373;BME280;70018;47.838;16.490;2023-10-31T03:43:17;97677.22;;;14.59;74.12
55373;BME280;70018;47.838;16.490;2023-10-31T03:45:43;97694.09;;;14.48;74.85
55373;BME280;70018;47.838;16.490;2023-10-31T03:48:10;97708.19;;;14.54;74.74
55373;BME280;70018;47.838;16.490;2023-10-31T03:50:36;97726.09;;;14.85;74.36
55373;BME280;70018;47.838;16.490;2023-10-31T03:53:03;97730.09;;;15.16;73.99
55373;BME280;70018;47.838;16.490;2023-10-31T03:55:30;97754.38;;;15.28;74.02
55373;BME280;70018;47.838;16.490;2023-10-31T03:57:56;97770.69;;;15.42;73.91
55373;BME280;70018;47.838;16.490;2023-10-31T04:00:23;97770.19;;;15.48;73.68
55373;BME280;70018;47.838;16.490;2023-10-31T04:02:50;97773.25;;;15.33;73.57
55373;BME280;70018;47.838;16.490;2023-10-31T04:05:17;97769.63;;;15.20;74.34
55373;BME280;70018;47.838;16.490;2023-10-31T04:07:46;97782.09;;;15.12;75.58
55373;BME280;70018;47.838;16.490;2023-10-31T04:10:13;97765.81;;;14.98;75.31
55373;BME280;70018;47.838;16.490;2023-10-31T04:12:40;97760.78;;;15.09;75.61
55373;BME280;70018;47.838;16.490;2023-10-31T04:15:08;97783.31;;;15.11;75.07
55373;BME280;70018;47.838;16.490;2023-10-31T04:17:35;97763.53;;;15.09;75.83
55373;BME280;70018;47.838;16.490;2023-10-31T04:20:02;97756.19;;;15.03;75.77
55373;BME280;70018;47.838;16.490;2023-10-31T04:22:29;97748.47;;;15.26;75.46
55373;BME280;70018;47.838;16.490;2023-10-31T04:24:56;97743.34;;;15.41;75.05
55373;BME280;70018;47.838;16.490;2023-10-31T04:27:23;97728.06;;;15.81;73.73
55373;BME280;70018;47.838;16.490;2023-10-31T04:29:49;97734.16;;;16.34;71.90
55373;BME280;70018;47.838;16.490;2023-10-31T04:32:16;97742.66;;;16.55;71.40
55373;BME280;70018;47.838;16.490;2023-10-31T04:34:43;97736.38;;;16.67;71.23
55373;BME280;70018;47.838;16.490;2023-10-31T04:37:09;97759.94;;;16.75;70.56
55373;BME280;70018;47.838;16.490;2023-10-31T04:39:36;97766.97;;;16.80;70.60
55373;BME280;70018;47.838;16.490;2023-10-31T04:42:03;97775.09;;;16.87;70.18
55373;BME280;70018;47.838;16.490;2023-10-31T04:44:30;97783.19;;;16.82;70.70
55373;BME280;70018;47.838;16.490;2023-10-31T04:46:56;97779.50;;;16.72;71.22
55373;BME280;70018;47.838;16.490;2023-10-31T04:49:23;97786.03;;;16.65;71.37
55373;BME280;70018;47.838;16.490;2023-10-31T04:51:50;97785.59;;;16.54;72.06
55373;BME280;70018;47.838;16.490;2023-10-31T04:54:16;97804.88;;;16.00;72.45
55373;BME280;70018;47.838;16.490;2023-10-31T04:56:43;97802.41;;;15.74;73.46
55373;BME280;70018;47.838;16.490;2023-10-31T04:59:10;97815.53;;;15.57;72.70
55373;BME280;70018;47.838;16.490;2023-10-31T05:01:36;97809.69;;;15.84;72.23
55373;BME280;70018;47.838;16.490;2023-10-31T05:04:03;97833.09;;;15.99;72.17
55373;BME280;70018;47.838;16.490;2023-10-31T05:06:38;97830.06;;;16.09;70.44
55373;BME280;70018;47.838;16.490;2023-10-31T05:09:05;97823.72;;;16.09;70.33
55373;BME280;70018;47.838;16.490;2023-10-31T05:11:32;97842.63;;;16.14;70.65
55373;BME280;70018;47.838;16.490;2023-10-31T05:13:59;97826.75;;;15.98;68.47
55373;BME280;70018;47.838;16.490;2023-10-31T05:16:26;97833.72;;;15.74;66.80
55373;BME280;70018;47.838;16.490;2023-10-31T05:18:52;97835.75;;;15.58;67.39
55373;BME280;70018;47.838;16.490;2023-10-31T05:21:19;97815.94;;;15.39;67.43
55373;BME280;70018;47.838;16.490;2023-10-31T05:23:50;97845.47;;;15.30;68.16
55373;BME280;70018;47.838;16.490;2023-10-31T05:26:17;97846.50;;;15.20;68.04
55373;BME280;70018;47.838;16.490;2023-10-31T05:28:43;97861.28;;;15.13;68.02
55373;BME280;70018;47.838;16.490;2023-10-31T05:31:10;97856.25;;;15.08;68.25
55373;BME280;70018;47.838;16.490;2023-10-31T05:33:37;97860.25;;;15.07;68.58
55373;BME280;70018;47.838;16.490;2023-10-31T05:36:04;97869.34;;;15.08;68.45
55373;BME280;70018;47.838;16.490;2023-10-31T05:38:31;97882.06;;;15.05;68.73
55373;BME280;70018;47.838;16.490;2023-10-31T05:40:58;97879.72;;;15.04;68.95
55373;BME280;70018;47.838;16.490;2023-10-31T05:43:24;97899.47;;;15.06;68.86
55373;BME280;70018;47.838;16.490;2023-10-31T05:45:51;97905.81;;;15.06;68.45
55373;BME280;70018;47.838;16.490;2023-10-31T05:48:18;97914.97;;;15.03;67.71
55373;BME280;70018;47.838;16.490;2023-10-31T05:50:44;97914.72;;;14.98;68.06
55373;BME280;70018;47.838;16.490;2023-10-31T05:53:11;97927.50;;;14.92;67.45
55373;BME280;70018;47.838;16.490;2023-10-31T05:55:39;97927.69;;;14.81;67.47
55373;BME280;70018;47.838;16.490;2023-10-31T05:58:06;97925.50;;;14.72;67.32
55373;BME280;70018;47.838;16.490;2023-10-31T06:00:33;97941.13;;;14.63;68.30
55373;BME280;70018;47.838;16.490;2023-10-31T06:02:59;97940.03;;;14.57;68.16
55373;BME280;70018;47.838;16.490;2023-10-31T06:05:26;97950.06;;;14.51;68.40
55373;BME280;70018;47.838;16.490;2023-10-31T06:07:53;97953.69;;;14.48;68.21
55373;BME280;70018;47.838;16.490;2023-10-31T06:10:19;97956.84;;;14.46;68.25
55373;BME280;70018;47.838;16.490;2023-10-31T06:12:47;97967.66;;;14.41;68.68
55373;BME280;70018;47.838;16.490;2023-10-31T06:15:14;97975.19;;;14.40;68.10
55373;BME280;70018;47.838;16.490;2023-10-31T06:17:41;97985.53;;;14.36;68.33
55373;BME280;70018;47.838;16.490;2023-10-31T06:20:08;97989.50;;;14.35;68.54
55373;BME280;70018;47.838;16.490;2023-10-31T06:22:36;98013.28;;;14.33;67.69
55373;BME280;70018;47.838;16.490;2023-10-31T06:25:02;98004.97;;;14.33;68.03
55373;BME280;70018;47.838;16.490;2023-10-31T06:27:29;98002.63;;;14.31;68.18
55373;BME280;70018;47.838;16.490;2023-10-31T06:29:56;97995.91;;;14.29;67.28
55373;BME280;70018;47.838;16.490;2023-10-31T06:32:42;98008.56;;;14.30;67.80
55373;BME280;70018;47.838;16.490;2023-10-31T06:35:09;98019.63;;;14.30;67.67
55373;BME280;70018;47.838;16.490;2023-10-31T06:37:36;98007.41;;;14.31;67.82
55373;BME280;70018;47.838;16.490;2023-10-31T06:40:04;98015.69;;;14.31;67.63
55373;BME280;70018;47.838;16.490;2023-10-31T06:42:30;98018.06;;;14.29;67.39
55373;BME280;70018;47.838;16.490;2023-10-31T06:44:57;98014.47;;;14.32;67.63
55373;BME280;70018;47.838;16.490;2023-10-31T06:47:24;98007.78;;;14.29;67.47
55373;BME280;70018;47.838;16.490;2023-10-31T06:49:51;97990.38;;;14.29;67.49
55373;BME280;70018;47.838;16.490;2023-10-31T06:52:17;97980.88;;;14.30;67.78
55373;BME280;70018;47.838;16.490;2023-10-31T06:54:44;97982.47;;;14.31;67.42
55373;BME280;70018;47.838;16.490;2023-10-31T06:57:11;97974.97;;;14.28;67.63
55373;BME280;70018;47.838;16.490;2023-10-31T06:59:37;97974.97;;;14.28;67.32
55373;BME280;70018;47.838;16.490;2023-10-31T07:02:04;97994.34;;;14.28;66.79
55373;BME280;70018;47.838;16.490;2023-10-31T07:04:31;97986.03;;;14.28;67.58
55373;BME280;70018;47.838;16.490;2023-10-31T07:06:58;97989.59;;;14.28;67.13
55373;BME280;70018;47.838;16.490;2023-10-31T07:09:25;98003.84;;;14.27;67.29
55373;BME280;70018;47.838;16.490;2023-10-31T07:11:53;98000.25;;;14.30;67.36
55373;BME280;70018;47.838;16.490;2023-10-31T07:14:19;98016.47;;;14.31;67.33
55373;BME280;70018;47.838;16.490;2023-10-31T07:16:47;98009.34;;;14.30;67.18
55373;BME280;70018;47.838;16.490;2023-10-31T07:19:15;98024.03;;;14.27;67.75
55373;BME280;70018;47.838;16.490;2023-10-31T07:21:42;98039.84;;;14.27;67.76
55373;BME280;70018;47.838;16.490;2023-10-31T07:24:09;98064.78;;;14.27;67.63
55373;BME280;70018;47.838;16.490;2023-10-31T07:26:36;98081.50;;;14.19;68.09
55373;BME280;70018;47.838;16.490;2023-10-31T07:29:03;98063.75;;;14.17;67.77
55373;BME280;70018;47.838;16.490;2023-10-31T07:31:29;98043.22;;;14.14;67.84
55373;BME280;70018;47.838;16.490;2023-10-31T07:33:56;98020.63;;;14.16;67.50
55373;BME280;70018;47.838;16.490;2023-10-31T07:36:23;98030.94;;;14.15;67.69
55373;BME280;70018;47.838;16.490;2023-10-31T07:38:51;98034.09;;;14.14;67.48
55373;BME280;70018;47.838;16.490;2023-10-31T07:41:18;98054.28;;;14.14;67.29
55373;BME280;70018;47.838;16.490;2023-10-31T07:43:44;98056.63;;;14.16;67.22
55373;BME280;70018;47.838;16.490;2023-10-31T07:46:11;98053.09;;;14.15;67.25
55373;BME280;70018;47.838;16.490;2023-10-31T07:48:38;98065.34;;;14.14;67.12
55373;BME280;70018;47.838;16.490;2023-10-31T07:51:04;98077.22;;;14.15;66.97
55373;BME280;70018;47.838;16.490;2023-10-31T07:53:31;98078.47;;;14.10;67.20
55373;BME280;70018;47.838;16.490;2023-10-31T07:55:58;98084.00;;;14.10;66.92
55373;BME280;70018;47.838;16.490;2023-10-31T07:58:24;98078.47;;;14.10;67.00
55373;BME280;70018;47.838;16.490;2023-10-31T08:00:51;98072.16;;;14.10;66.45
55373;BME280;70018;47.838;16.490;2023-10-31T08:03:18;98051.63;;;14.07;67.08
55373;BME280;70018;47.838;16.490;2023-10-31T08:05:44;98051.63;;;14.07;67.07
55373;BME280;70018;47.838;16.490;2023-10-31T08:08:11;98046.88;;;14.08;67.22
55373;BME280;70018;47.838;16.490;2023-10-31T08:10:38;98046.09;;;14.07;67.03
55373;BME280;70018;47.838;16.490;2023-10-31T08:13:04;98055.19;;;14.08;67.53
55373;BME280;70018;47.838;16.490;2023-10-31T08:15:31;98066.28;;;14.04;67.09
55373;BME280;70018;47.838;16.490;2023-10-31T08:17:58;98063.53;;;14.04;67.28
55373;BME280;70018;47.838;16.490;2023-10-31T08:20:24;98061.97;;;14.03;67.18
55373;BME280;70018;47.838;16.490;2023-10-31T08:22:51;98073.03;;;14.03;67.63
55373;BME280;70018;47.838;16.490;2023-10-31T08:25:18;98069.88;;;14.01;67.44
55373;BME280;70018;47.838;16.490;2023-10-31T08:27:44;98060.81;;;14.01;67.53
55373;BME280;70018;47.838;16.490;2023-10-31T08:30:11;98049.38;;;13.99;66.59
55373;BME280;70018;47.838;16.490;2023-10-31T08:32:38;98044.25;;;13.97;66.98
55373;BME280;70018;47.838;16.490;2023-10-31T08:35:05;98075.50;;;13.98;66.72
55373;BME280;70018;47.838;16.490;2023-10-31T08:37:32;98084.59;;;13.98;66.90
55373;BME280;70018;47.838;16.490;2023-10-31T08:39:58;98077.84;;;13.99;66.85
55373;BME280;70018;47.838;16.490;2023-10-31T08:42:25;98064.81;;;13.96;66.49
55373;BME280;70018;47.838;16.490;2023-10-31T08:44:52;98064.81;;;13.96;66.51
55373;BME280;70018;47.838;16.490;2023-10-31T08:47:18;98048.63;;;13.95;66.13
55373;BME280;70018;47.838;16.490;2023-10-31T08:49:45;98034.84;;;13.91;66.19
55373;BME280;70018;47.838;16.490;2023-10-31T08:52:12;98037.69;;;13.88;66.41
55373;BME280;70018;47.838;16.490;2023-10-31T08:54:38;98031.00;;;13.85;65.78
55373;BME280;70018;47.838;16.490;2023-10-31T08:57:05;98028.22;;;13.85;65.81
55373;BME280;70018;47.838;16.490;2023-10-31T08:59:31;98018.34;;;13.84;65.32
55373;BME280;70018;47.838;16.490;2023-10-31T09:01:58;98006.09;;;13.85;64.21
55373;BME280;70018;47.838;16.490;2023-10-31T09:04:25;98008.44;;;13.87;64.95
55373;BME280;70018;47.838;16.490;2023-10-31T09:06:51;98015.47;;;13.91;65.22
55373;BME280;70018;47.838;16.490;2023-10-31T09:09:18;98030.94;;;13.89;64.77
55373;BME280;70018;47.838;16.490;2023-10-31T09:11:45;98034.94;;;13.84;65.32
55373;BME280;70018;47.838;16.490;2023-10-31T09:14:11;98037.81;;;13.77;65.02
55373;BME280;70018;47.838;16.490;2023-10-31T09:16:38;98039.09;;;13.69;64.79
55373;BME280;70018;47.838;16.490;2023-10-31T09:19:05;98055.38;;;13.64;64.38
55373;BME280;70018;47.838;16.490;2023-10-31T09:21:31;98067.31;;;13.57;64.80
55373;BME280;70018;47.838;16.490;2023-10-31T09:23:58;98064.22;;;13.51;65.09
55373;BME280;70018;47.838;16.490;2023-10-31T09:26:25;98061.91;;;13.46;63.54
55373;BME280;70018;47.838;16.490;2023-10-31T09:28:52;98069.81;;;13.48;64.00
55373;BME280;70018;47.838;16.490;2023-10-31T09:31:19;98079.31;;;13.47;64.25
55373;BME280;70018;47.838;16.490;2023-10-31T09:33:46;98082.16;;;13.40;65.44
55373;BME280;70018;47.838;16.490;2023-10-31T09:36:13;98101.25;;;13.27;66.16
55373;BME280;70018;47.838;16.490;2023-10-31T09:38:41;98117.94;;;13.17;67.71
55373;BME280;70018;47.838;16.490;2023-10-31T09:41:07;98109.06;;;12.91;68.66
55373;BME280;70018;47.838;16.490;2023-10-31T09:43:34;98099.16;;;12.53;72.71
55373;BME280;70018;47.838;16.490;2023-10-31T09:46:01;98087.94;;;12.23;74.69
55373;BME280;70018;47.838;16.490;2023-10-31T09:48:30;98085.31;;;12.02;77.03
55373;BME280;70018;47.838;16.490;2023-10-31T09:50:57;98074.38;;;11.84;77.94
55373;BME280;70018;47.838;16.490;2023-10-31T09:53:24;98074.09;;;11.61;81.20
55373;BME280;70018;47.838;16.490;2023-10-31T09:55:52;98066.22;;;11.56;80.09
55373;BME280;70018;47.838;16.490;2023-10-31T09:58:20;98069.78;;;11.53;81.36
55373;BME280;70018;47.838;16.490;2023-10-31T10:00:47;98080.88;;;11.35;83.86
55373;BME280;70018;47.838;16.490;2023-10-31T10:03:14;98097.09;;;11.19;84.29
55373;BME280;70018;47.838;16.490;2023-10-31T10:05:44;98112.44;;;11.10;84.54
55373;BME280;70018;47.838;16.490;2023-10-31T10:08:11;98134.09;;;11.04;83.64
55373;BME280;70018;47.838;16.490;2023-10-31T10:10:38;98143.16;;;11.01;82.88
55373;BME280;70018;47.838;16.490;2023-10-31T10:13:05;98161.66;;;10.90;84.46
55373;BME280;70018;47.838;16.490;2023-10-31T10:15:43;98176.22;;;10.83;84.18
55373;BME280;70018;47.838;16.490;2023-10-31T10:18:10;98186.44;;;10.76;84.80
55373;BME280;70018;47.838;16.490;2023-10-31T10:20:54;98179.75;;;10.73;85.87
55373;BME280;70018;47.838;16.490;2023-10-31T10:23:21;98144.75;;;10.63;88.15
55373;BME280;70018;47.838;16.490;2023-10-31T10:25:51;98108.56;;;10.51;88.69
55373;BME280;70018;47.838;16.490;2023-10-31T10:28:18;98051.13;;;10.42;91.67
55373;BME280;70018;47.838;16.490;2023-10-31T10:30:48;98077.88;;;10.34;93.20
55373;BME280;70018;47.838;16.490;2023-10-31T10:33:15;98106.19;;;10.31;93.56
55373;BME280;70018;47.838;16.490;2023-10-31T10:35:42;98122.69;;;10.31;89.82
55373;BME280;70018;47.838;16.490;2023-10-31T10:40:47;98131.34;;;10.26;92.88
55373;BME280;70018;47.838;16.490;2023-10-31T10:43:24;98119.94;;;10.24;93.66
55373;BME280;70018;47.838;16.490;2023-10-31T10:45:54;98112.84;;;10.16;93.97
55373;BME280;70018;47.838;16.490;2023-10-31T10:48:25;98145.41;;;10.11;96.12
55373;BME280;70018;47.838;16.490;2023-10-31T10:50:59;98144.63;;;10.10;97.16
55373;BME280;70018;47.838;16.490;2023-10-31T10:53:50;98171.41;;;10.13;95.22
55373;BME280;70018;47.838;16.490;2023-10-31T10:56:26;98174.16;;;10.13;93.74
55373;BME280;70018;47.838;16.490;2023-10-31T18:09:42;98564.31;;;10.04;80.88
55373;BME280;70018;47.838;16.490;2023-10-31T18:12:09;98579.28;;;10.10;81.40
55373;BME280;70018;47.838;16.490;2023-10-31T18:14:38;98566.75;;;10.13;82.05
55373;BME280;70018;47.838;16.490;2023-10-31T18:17:05;98582.38;;;10.05;81.96
55373;BME280;70018;47.838;16.490;2023-10-31T18:19:32;98582.19;;;9.88;82.70
55373;BME280;70018;47.838;16.490;2023-10-31T18:24:44;98595.53;;;9.86;83.42
55373;BME280;70018;47.838;16.490;2023-10-31T18:27:11;98596.44;;;9.97;82.87
55373;BME280;70018;47.838;16.490;2023-10-31T18:29:38;98598.13;;;10.08;82.17
55373;BME280;70018;47.838;16.490;2023-10-31T18:32:05;98605.78;;;10.22;81.03
55373;BME280;70018;47.838;16.490;2023-10-31T18:34:31;98609.00;;;10.34;81.21
55373;BME280;70018;47.838;16.490;2023-10-31T18:36:58;98610.25;;;10.41;79.85
55373;BME280;70018;47.838;16.490;2023-10-31T18:39:25;98613.84;;;10.48;79.29
55373;BME280;70018;47.838;16.490;2023-10-31T18:41:52;98618.22;;;10.53;79.07
55373;BME280;70018;47.838;16.490;2023-10-31T18:44:34;98614.28;;;10.54;78.04
55373;BME280;70018;47.838;16.490;2023-10-31T18:47:15;98622.97;;;10.56;77.33
55373;BME280;70018;47.838;16.490;2023-10-31T18:49:42;98632.88;;;10.64;74.77
55373;BME280;70018;47.838;16.490;2023-10-31T18:52:09;98647.84;;;10.70;74.95
55373;BME280;70018;47.838;16.490;2023-10-31T18:54:35;98633.41;;;10.87;73.17
55373;BME280;70018;47.838;16.490;2023-10-31T18:57:02;98640.16;;;10.93;75.16
55373;BME280;70018;47.838;16.490;2023-10-31T18:59:29;98633.53;;;11.01;75.32
55373;BME280;70018;47.838;16.490;2023-10-31T19:01:59;98636.72;;;11.07;73.01
55373;BME280;70018;47.838;16.490;2023-10-31T19:04:26;98643.09;;;11.14;73.83
55373;BME280;70018;47.838;16.490;2023-10-31T19:06:54;98652.13;;;11.15;72.38
55373;BME280;70018;47.838;16.490;2023-10-31T19:09:21;98647.41;;;11.15;71.69
55373;BME280;70018;47.838;16.490;2023-10-31T19:11:48;98647.38;;;11.08;72.54
55373;BME280;70018;47.838;16.490;2023-10-31T19:14:15;98650.53;;;11.10;71.28
55373;BME280;70018;47.838;16.490;2023-10-31T19:16:44;98655.66;;;11.12;70.50
55373;BME280;70018;47.838;16.490;2023-10-31T19:19:10;98656.78;;;11.04;72.48
55373;BME280;70018;47.838;16.490;2023-10-31T19:21:37;98655.59;;;11.01;72.70
55373;BME280;70018;47.838;16.490;2023-10-31T19:24:04;98662.66;;;11.02;72.63
55373;BME280;70018;47.838;16.490;2023-10-31T19:26:31;98673.69;;;11.02;72.40
55373;BME280;70018;47.838;16.490;2023-10-31T19:28:58;98678.09;;;11.14;71.94
55373;BME280;70018;47.838;16.490;2023-10-31T19:31:26;98689.56;;;11.19;70.16
55373;BME280;70018;47.838;16.490;2023-10-31T19:33:52;98693.94;;;11.27;71.23
55373;BME280;70018;47.838;16.490;2023-10-31T19:36:22;98695.97;;;11.34;71.01
55373;BME280;70018;47.838;16.490;2023-10-31T19:38:49;98702.69;;;11.36;70.50
55373;BME280;70018;47.838;16.490;2023-10-31T19:41:16;98716.47;;;11.40;71.88
55373;BME280;70018;47.838;16.490;2023-10-31T19:43:43;98716.50;;;11.43;69.83
55373;BME280;70018;47.838;16.490;2023-10-31T19:46:10;98728.72;;;11.49;69.36
55373;BME280;70018;47.838;16.490;2023-10-31T19:48:37;98722.03;;;11.47;70.51
55373;BME280;70018;47.838;16.490;2023-10-31T19:51:06;98726.34;;;11.41;70.11
55373;BME280;70018;47.838;16.490;2023-10-31T19:53:36;98735.75;;;11.36;69.88
55373;BME280;70018;47.838;16.490;2023-10-31T19:56:04;98742.75;;;11.27;70.79
55373;BME280;70018;47.838;16.490;2023-10-31T19:58:31;98747.88;;;11.25;70.29
55373;BME280;70018;47.838;16.490;2023-10-31T20:00:58;98754.97;;;11.29;71.22
55373;BME280;70018;47.838;16.490;2023-10-31T20:03:24;98760.50;;;11.29;71.01
55373;BME280;70018;47.838;16.490;2023-10-31T20:05:52;98761.63;;;11.21;71.23